sensor_id;sensor_type;location;lat;lon;timestamp;P1;durP1;ratioP1;P2;durP2;ratioP2
12482;SDS011;6306;47.134;15.344;2022-12-18T00:00:59;12.53;;;7.80;;
12482;SDS011;6306;47.134;15.344;2022-12-18T00:03:25;16.17;;;8.00;;
12482;SDS011;6306;47.134;15.344;2022-12-18T00:05:51;12.57;;;6.97;;
12482;SDS011;6306;47.134;15.344;2022-12-18T00:08:18;11.03;;;6.20;;
12482;SDS011;6306;47.134;15.344;2022-12-18T00:10:45;9.70;;;6.10;;
12482;SDS011;6306;47.134;15.344;2022-12-18T00:13:11;8.70;;;5.90;;
12482;SDS011;6306;47.134;15.344;2022-12-18T00:15:38;11.27;;;7.00;;
12482;SDS011;6306;47.134;15.344;2022-12-18T00:18:05;8.20;;;4.70;;
12482;SDS011;6306;47.134;15.344;2022-12-18T00:20:35;9.63;;;6.43;;
12482;SDS011;6306;47.134;15.344;2022-12-18T00:23:01;14.33;;;7.80;;
12482;SDS011;6306;47.134;15.344;2022-12-18T00:25:27;10.30;;;7.67;;
12482;SDS011;6306;47.134;15.344;2022-12-18T00:27:53;10.03;;;7.23;;
12482;SDS011;6306;47.134;15.344;2022-12-18T00:30:19;11.47;;;6.93;;
12482;SDS011;6306;47.134;15.344;2022-12-18T00:32:45;12.80;;;7.27;;
12482;SDS011;6306;47.134;15.344;2022-12-18T00:35:11;11.80;;;7.70;;
12482;SDS011;6306;47.134;15.344;2022-12-18T00:37:37;12.80;;;9.43;;
12482;SDS011;6306;47.134;15.344;2022-12-18T00:40:03;8.77;;;6.77;;
12482;SDS011;6306;47.134;15.344;2022-12-18T00:42:29;11.80;;;6.70;;
12482;SDS011;6306;47.134;15.344;2022-12-18T00:45:13;10.77;;;6.70;;
12482;SDS011;6306;47.134;15.344;2022-12-18T00:47:39;11.20;;;6.97;;
12482;SDS011;6306;47.134;15.344;2022-12-18T00:50:06;12.70;;;7.40;;
12482;SDS011;6306;47.134;15.344;2022-12-18T00:52:32;14.77;;;6.50;;
12482;SDS011;6306;47.134;15.344;2022-12-18T00:54:58;8.80;;;6.73;;
12482;SDS011;6306;47.134;15.344;2022-12-18T00:57:24;12.50;;;6.30;;
12482;SDS011;6306;47.134;15.344;2022-12-18T00:59:50;10.37;;;7.03;;
12482;SDS011;6306;47.134;15.344;2022-12-18T01:02:16;8.97;;;5.87;;
12482;SDS011;6306;47.134;15.344;2022-12-18T01:04:42;9.57;;;6.83;;
12482;SDS011;6306;47.134;15.344;2022-12-18T01:07:08;8.17;;;5.73;;
12482;SDS011;6306;47.134;15.344;2022-12-18T01:09:34;10.20;;;5.77;;
12482;SDS011;6306;47.134;15.344;2022-12-18T01:12:00;10.23;;;6.30;;
12482;SDS011;6306;47.134;15.344;2022-12-18T01:14:26;8.07;;;5.40;;
12482;SDS011;6306;47.134;15.344;2022-12-18T01:16:52;11.50;;;6.67;;
12482;SDS011;6306;47.134;15.344;2022-12-18T01:19:18;8.30;;;5.57;;
12482;SDS011;6306;47.134;15.344;2022-12-18T01:21:44;7.70;;;6.00;;
12482;SDS011;6306;47.134;15.344;2022-12-18T01:24:11;13.00;;;5.93;;
12482;SDS011;6306;47.134;15.344;2022-12-18T01:26:37;9.67;;;6.20;;
12482;SDS011;6306;47.134;15.344;2022-12-18T01:29:03;8.20;;;5.53;;
12482;SDS011;6306;47.134;15.344;2022-12-18T01:31:30;9.50;;;5.30;;
12482;SDS011;6306;47.134;15.344;2022-12-18T01:33:57;7.80;;;5.03;;
12482;SDS011;6306;47.134;15.344;2022-12-18T01:36:24;6.37;;;5.00;;
12482;SDS011;6306;47.134;15.344;2022-12-18T01:38:51;5.03;;;4.53;;
12482;SDS011;6306;47.134;15.344;2022-12-18T01:41:18;11.20;;;5.97;;
12482;SDS011;6306;47.134;15.344;2022-12-18T01:46:10;8.10;;;6.00;;
12482;SDS011;6306;47.134;15.344;2022-12-18T01:48:36;7.60;;;5.50;;
12482;SDS011;6306;47.134;15.344;2022-12-18T01:51:02;9.27;;;5.67;;
12482;SDS011;6306;47.134;15.344;2022-12-18T01:53:28;7.93;;;5.63;;
12482;SDS011;6306;47.134;15.344;2022-12-18T01:55:55;7.53;;;4.30;;
12482;SDS011;6306;47.134;15.344;2022-12-18T01:58:23;7.43;;;3.90;;
12482;SDS011;6306;47.134;15.344;2022-12-18T02:00:53;6.03;;;3.80;;
12482;SDS011;6306;47.134;15.344;2022-12-18T02:03:20;8.43;;;5.73;;
12482;SDS011;6306;47.134;15.344;2022-12-18T02:05:47;7.40;;;4.90;;
12482;SDS011;6306;47.134;15.344;2022-12-18T02:08:20;7.63;;;5.30;;
12482;SDS011;6306;47.134;15.344;2022-12-18T02:13:20;7.10;;;5.80;;
12482;SDS011;6306;47.134;15.344;2022-12-18T02:18:30;6.40;;;4.17;;
12482;SDS011;6306;47.134;15.344;2022-12-18T02:23:35;7.20;;;4.30;;
12482;SDS011;6306;47.134;15.344;2022-12-18T02:26:07;6.27;;;4.13;;
12482;SDS011;6306;47.134;15.344;2022-12-18T02:28:39;6.97;;;5.10;;
12482;SDS011;6306;47.134;15.344;2022-12-18T02:31:06;10.60;;;4.63;;
12482;SDS011;6306;47.134;15.344;2022-12-18T02:33:33;10.00;;;4.80;;
12482;SDS011;6306;47.134;15.344;2022-12-18T02:36:00;7.07;;;4.50;;
12482;SDS011;6306;47.134;15.344;2022-12-18T02:38:27;7.53;;;4.73;;
12482;SDS011;6306;47.134;15.344;2022-12-18T02:40:54;6.10;;;4.40;;
12482;SDS011;6306;47.134;15.344;2022-12-18T02:43:20;7.10;;;4.23;;
12482;SDS011;6306;47.134;15.344;2022-12-18T02:45:47;7.20;;;4.50;;
12482;SDS011;6306;47.134;15.344;2022-12-18T02:48:14;7.43;;;4.50;;
12482;SDS011;6306;47.134;15.344;2022-12-18T02:50:48;14.03;;;4.47;;
12482;SDS011;6306;47.134;15.344;2022-12-18T03:00:58;6.50;;;4.23;;
12482;SDS011;6306;47.134;15.344;2022-12-18T03:05:56;7.23;;;3.80;;
12482;SDS011;6306;47.134;15.344;2022-12-18T03:08:26;6.87;;;4.57;;
12482;SDS011;6306;47.134;15.344;2022-12-18T03:11:03;6.93;;;4.37;;
12482;SDS011;6306;47.134;15.344;2022-12-18T03:13:34;7.70;;;5.07;;
12482;SDS011;6306;47.134;15.344;2022-12-18T03:16:01;6.17;;;3.53;;
12482;SDS011;6306;47.134;15.344;2022-12-18T03:21:26;4.33;;;3.93;;
12482;SDS011;6306;47.134;15.344;2022-12-18T03:23:53;5.57;;;3.37;;
12482;SDS011;6306;47.134;15.344;2022-12-18T03:26:21;5.90;;;3.90;;
12482;SDS011;6306;47.134;15.344;2022-12-18T03:28:52;7.27;;;4.20;;
12482;SDS011;6306;47.134;15.344;2022-12-18T03:31:19;3.90;;;3.50;;
12482;SDS011;6306;47.134;15.344;2022-12-18T03:33:51;6.40;;;3.90;;
12482;SDS011;6306;47.134;15.344;2022-12-18T03:36:17;9.13;;;3.90;;
12482;SDS011;6306;47.134;15.344;2022-12-18T03:38:43;5.13;;;4.33;;
12482;SDS011;6306;47.134;15.344;2022-12-18T03:41:17;4.63;;;3.30;;
12482;SDS011;6306;47.134;15.344;2022-12-18T03:46:23;6.73;;;4.23;;
12482;SDS011;6306;47.134;15.344;2022-12-18T03:48:57;6.20;;;4.27;;
12482;SDS011;6306;47.134;15.344;2022-12-18T03:51:26;8.03;;;3.83;;
12482;SDS011;6306;47.134;15.344;2022-12-18T03:54:03;6.70;;;4.00;;
12482;SDS011;6306;47.134;15.344;2022-12-18T03:56:31;5.33;;;3.70;;
12482;SDS011;6306;47.134;15.344;2022-12-18T03:58:58;6.70;;;4.40;;
12482;SDS011;6306;47.134;15.344;2022-12-18T04:01:29;4.20;;;3.43;;
12482;SDS011;6306;47.134;15.344;2022-12-18T04:03:56;4.80;;;3.70;;
12482;SDS011;6306;47.134;15.344;2022-12-18T04:06:23;9.23;;;4.33;;
12482;SDS011;6306;47.134;15.344;2022-12-18T04:08:50;8.40;;;4.77;;
12482;SDS011;6306;47.134;15.344;2022-12-18T04:11:16;4.27;;;3.33;;
12482;SDS011;6306;47.134;15.344;2022-12-18T04:13:42;5.67;;;3.23;;
12482;SDS011;6306;47.134;15.344;2022-12-18T04:16:08;6.87;;;3.80;;
12482;SDS011;6306;47.134;15.344;2022-12-18T04:18:34;9.37;;;4.33;;
12482;SDS011;6306;47.134;15.344;2022-12-18T04:21:01;4.77;;;4.00;;
12482;SDS011;6306;47.134;15.344;2022-12-18T04:23:27;4.67;;;3.43;;
12482;SDS011;6306;47.134;15.344;2022-12-18T04:25:53;11.63;;;4.50;;
12482;SDS011;6306;47.134;15.344;2022-12-18T04:28:19;5.27;;;3.27;;
12482;SDS011;6306;47.134;15.344;2022-12-18T04:30:45;7.77;;;4.33;;
12482;SDS011;6306;47.134;15.344;2022-12-18T04:33:12;7.03;;;4.10;;
12482;SDS011;6306;47.134;15.344;2022-12-18T04:35:41;5.73;;;3.77;;
12482;SDS011;6306;47.134;15.344;2022-12-18T04:38:08;4.97;;;3.40;;
12482;SDS011;6306;47.134;15.344;2022-12-18T04:40:35;10.40;;;5.40;;
12482;SDS011;6306;47.134;15.344;2022-12-18T04:43:01;6.10;;;3.40;;
12482;SDS011;6306;47.134;15.344;2022-12-18T04:45:27;11.43;;;3.60;;
12482;SDS011;6306;47.134;15.344;2022-12-18T04:47:53;6.17;;;4.13;;
12482;SDS011;6306;47.134;15.344;2022-12-18T04:50:19;8.33;;;4.17;;
12482;SDS011;6306;47.134;15.344;2022-12-18T04:52:45;6.43;;;4.20;;
12482;SDS011;6306;47.134;15.344;2022-12-18T04:55:11;6.00;;;4.23;;
12482;SDS011;6306;47.134;15.344;2022-12-18T04:57:37;6.80;;;4.13;;
12482;SDS011;6306;47.134;15.344;2022-12-18T05:00:03;8.63;;;5.30;;
12482;SDS011;6306;47.134;15.344;2022-12-18T05:02:31;5.17;;;3.33;;
12482;SDS011;6306;47.134;15.344;2022-12-18T05:04:57;9.03;;;4.30;;
12482;SDS011;6306;47.134;15.344;2022-12-18T05:07:23;6.00;;;4.83;;
12482;SDS011;6306;47.134;15.344;2022-12-18T05:09:49;9.07;;;5.13;;
12482;SDS011;6306;47.134;15.344;2022-12-18T05:12:15;6.80;;;4.40;;
12482;SDS011;6306;47.134;15.344;2022-12-18T05:14:41;8.43;;;4.17;;
12482;SDS011;6306;47.134;15.344;2022-12-18T05:17:07;8.53;;;4.77;;
12482;SDS011;6306;47.134;15.344;2022-12-18T05:19:33;8.10;;;4.10;;
12482;SDS011;6306;47.134;15.344;2022-12-18T05:21:59;7.63;;;4.37;;
12482;SDS011;6306;47.134;15.344;2022-12-18T05:24:26;8.37;;;4.10;;
12482;SDS011;6306;47.134;15.344;2022-12-18T05:26:52;4.80;;;3.77;;
12482;SDS011;6306;47.134;15.344;2022-12-18T05:29:18;9.10;;;4.80;;
12482;SDS011;6306;47.134;15.344;2022-12-18T05:31:44;11.53;;;4.60;;
12482;SDS011;6306;47.134;15.344;2022-12-18T05:34:10;5.10;;;3.60;;
12482;SDS011;6306;47.134;15.344;2022-12-18T05:36:36;4.17;;;3.77;;
12482;SDS011;6306;47.134;15.344;2022-12-18T05:39:02;5.23;;;4.10;;
12482;SDS011;6306;47.134;15.344;2022-12-18T05:41:28;5.10;;;4.53;;
12482;SDS011;6306;47.134;15.344;2022-12-18T05:43:54;7.27;;;4.47;;
12482;SDS011;6306;47.134;15.344;2022-12-18T05:46:20;6.63;;;4.33;;
12482;SDS011;6306;47.134;15.344;2022-12-18T05:48:46;7.63;;;4.43;;
12482;SDS011;6306;47.134;15.344;2022-12-18T05:51:15;5.03;;;3.50;;
12482;SDS011;6306;47.134;15.344;2022-12-18T05:53:42;7.60;;;3.67;;
12482;SDS011;6306;47.134;15.344;2022-12-18T05:56:09;4.40;;;3.80;;
12482;SDS011;6306;47.134;15.344;2022-12-18T05:58:36;4.23;;;3.83;;
12482;SDS011;6306;47.134;15.344;2022-12-18T06:01:09;7.33;;;3.73;;
12482;SDS011;6306;47.134;15.344;2022-12-18T06:03:35;6.97;;;3.80;;
12482;SDS011;6306;47.134;15.344;2022-12-18T06:06:01;7.60;;;4.13;;
12482;SDS011;6306;47.134;15.344;2022-12-18T06:08:27;6.80;;;3.80;;
12482;SDS011;6306;47.134;15.344;2022-12-18T06:10:53;5.60;;;4.17;;
12482;SDS011;6306;47.134;15.344;2022-12-18T06:13:19;7.00;;;3.87;;
12482;SDS011;6306;47.134;15.344;2022-12-18T06:15:45;6.53;;;3.90;;
12482;SDS011;6306;47.134;15.344;2022-12-18T06:18:12;6.43;;;4.27;;
12482;SDS011;6306;47.134;15.344;2022-12-18T06:20:38;5.60;;;3.87;;
12482;SDS011;6306;47.134;15.344;2022-12-18T06:23:06;6.00;;;3.80;;
12482;SDS011;6306;47.134;15.344;2022-12-18T06:25:32;7.20;;;5.13;;
12482;SDS011;6306;47.134;15.344;2022-12-18T06:27:58;9.07;;;4.67;;
12482;SDS011;6306;47.134;15.344;2022-12-18T06:30:24;10.80;;;4.80;;
12482;SDS011;6306;47.134;15.344;2022-12-18T06:32:51;6.10;;;4.10;;
12482;SDS011;6306;47.134;15.344;2022-12-18T06:35:17;11.23;;;5.13;;
12482;SDS011;6306;47.134;15.344;2022-12-18T06:37:43;4.53;;;4.10;;
12482;SDS011;6306;47.134;15.344;2022-12-18T06:40:09;6.77;;;3.83;;
12482;SDS011;6306;47.134;15.344;2022-12-18T06:42:35;6.00;;;4.67;;
12482;SDS011;6306;47.134;15.344;2022-12-18T06:45:01;6.50;;;4.00;;
12482;SDS011;6306;47.134;15.344;2022-12-18T06:47:27;8.93;;;5.20;;
12482;SDS011;6306;47.134;15.344;2022-12-18T06:49:53;4.57;;;4.10;;
12482;SDS011;6306;47.134;15.344;2022-12-18T06:52:19;5.50;;;3.77;;
12482;SDS011;6306;47.134;15.344;2022-12-18T06:54:45;7.00;;;4.07;;
12482;SDS011;6306;47.134;15.344;2022-12-18T06:57:11;5.93;;;4.50;;
12482;SDS011;6306;47.134;15.344;2022-12-18T06:59:37;6.00;;;4.53;;
12482;SDS011;6306;47.134;15.344;2022-12-18T07:02:03;10.03;;;5.60;;
12482;SDS011;6306;47.134;15.344;2022-12-18T07:04:29;8.07;;;6.20;;
12482;SDS011;6306;47.134;15.344;2022-12-18T07:06:55;13.00;;;8.20;;
12482;SDS011;6306;47.134;15.344;2022-12-18T07:09:22;11.50;;;8.20;;
12482;SDS011;6306;47.134;15.344;2022-12-18T07:11:48;12.03;;;8.50;;
12482;SDS011;6306;47.134;15.344;2022-12-18T07:14:14;19.50;;;12.37;;
12482;SDS011;6306;47.134;15.344;2022-12-18T07:16:40;24.40;;;14.73;;
12482;SDS011;6306;47.134;15.344;2022-12-18T07:19:06;26.37;;;15.03;;
12482;SDS011;6306;47.134;15.344;2022-12-18T07:21:32;23.80;;;14.73;;
12482;SDS011;6306;47.134;15.344;2022-12-18T07:23:58;21.17;;;13.70;;
12482;SDS011;6306;47.134;15.344;2022-12-18T07:26:24;22.50;;;13.67;;
12482;SDS011;6306;47.134;15.344;2022-12-18T07:28:53;20.00;;;13.47;;
12482;SDS011;6306;47.134;15.344;2022-12-18T07:31:20;26.87;;;13.37;;
12482;SDS011;6306;47.134;15.344;2022-12-18T07:33:47;20.80;;;12.80;;
12482;SDS011;6306;47.134;15.344;2022-12-18T07:36:14;26.17;;;14.30;;
12482;SDS011;6306;47.134;15.344;2022-12-18T07:38:40;21.47;;;15.37;;
12482;SDS011;6306;47.134;15.344;2022-12-18T07:41:10;27.63;;;16.33;;
12482;SDS011;6306;47.134;15.344;2022-12-18T07:43:36;24.70;;;19.00;;
12482;SDS011;6306;47.134;15.344;2022-12-18T07:46:03;24.50;;;15.60;;
12482;SDS011;6306;47.134;15.344;2022-12-18T07:48:29;26.90;;;15.40;;
12482;SDS011;6306;47.134;15.344;2022-12-18T07:50:59;21.87;;;13.50;;
12482;SDS011;6306;47.134;15.344;2022-12-18T07:53:25;23.17;;;14.10;;
12482;SDS011;6306;47.134;15.344;2022-12-18T07:56:10;20.53;;;12.93;;
12482;SDS011;6306;47.134;15.344;2022-12-18T07:58:36;20.50;;;13.90;;
12482;SDS011;6306;47.134;15.344;2022-12-18T08:01:09;18.13;;;13.27;;
12482;SDS011;6306;47.134;15.344;2022-12-18T08:03:35;17.77;;;13.10;;
12482;SDS011;6306;47.134;15.344;2022-12-18T08:06:02;27.57;;;14.97;;
12482;SDS011;6306;47.134;15.344;2022-12-18T08:08:28;18.17;;;11.23;;
12482;SDS011;6306;47.134;15.344;2022-12-18T08:10:54;18.60;;;11.43;;
12482;SDS011;6306;47.134;15.344;2022-12-18T08:13:20;13.50;;;10.70;;
12482;SDS011;6306;47.134;15.344;2022-12-18T08:15:46;19.77;;;11.37;;
12482;SDS011;6306;47.134;15.344;2022-12-18T08:18:20;22.53;;;13.20;;
12482;SDS011;6306;47.134;15.344;2022-12-18T08:20:46;24.30;;;14.10;;
12482;SDS011;6306;47.134;15.344;2022-12-18T08:23:12;17.53;;;11.93;;
12482;SDS011;6306;47.134;15.344;2022-12-18T08:25:38;18.20;;;11.43;;
12482;SDS011;6306;47.134;15.344;2022-12-18T08:28:04;15.90;;;10.30;;
12482;SDS011;6306;47.134;15.344;2022-12-18T08:30:30;13.70;;;9.70;;
12482;SDS011;6306;47.134;15.344;2022-12-18T08:32:56;16.10;;;11.27;;
12482;SDS011;6306;47.134;15.344;2022-12-18T08:35:23;16.13;;;10.77;;
12482;SDS011;6306;47.134;15.344;2022-12-18T08:37:49;19.80;;;10.00;;
12482;SDS011;6306;47.134;15.344;2022-12-18T08:40:15;17.00;;;9.67;;
12482;SDS011;6306;47.134;15.344;2022-12-18T08:42:41;13.67;;;10.10;;
12482;SDS011;6306;47.134;15.344;2022-12-18T08:45:27;15.07;;;10.10;;
12482;SDS011;6306;47.134;15.344;2022-12-18T08:47:53;15.43;;;8.80;;
12482;SDS011;6306;47.134;15.344;2022-12-18T08:50:19;13.47;;;9.50;;
12482;SDS011;6306;47.134;15.344;2022-12-18T08:52:45;9.40;;;7.73;;
12482;SDS011;6306;47.134;15.344;2022-12-18T08:55:11;15.50;;;8.90;;
12482;SDS011;6306;47.134;15.344;2022-12-18T08:57:37;14.40;;;9.17;;
12482;SDS011;6306;47.134;15.344;2022-12-18T09:00:04;14.20;;;10.10;;
12482;SDS011;6306;47.134;15.344;2022-12-18T09:02:30;20.67;;;11.27;;
12482;SDS011;6306;47.134;15.344;2022-12-18T09:04:56;17.63;;;10.40;;
12482;SDS011;6306;47.134;15.344;2022-12-18T09:07:22;16.37;;;8.90;;
12482;SDS011;6306;47.134;15.344;2022-12-18T09:09:48;15.33;;;10.10;;
12482;SDS011;6306;47.134;15.344;2022-12-18T09:12:14;15.23;;;8.17;;
12482;SDS011;6306;47.134;15.344;2022-12-18T09:14:40;11.20;;;7.93;;
12482;SDS011;6306;47.134;15.344;2022-12-18T09:17:06;14.80;;;8.43;;
12482;SDS011;6306;47.134;15.344;2022-12-18T09:19:32;13.90;;;8.27;;
12482;SDS011;6306;47.134;15.344;2022-12-18T09:21:58;12.00;;;8.37;;
12482;SDS011;6306;47.134;15.344;2022-12-18T09:24:24;16.60;;;7.47;;
12482;SDS011;6306;47.134;15.344;2022-12-18T09:26:52;13.30;;;8.30;;
12482;SDS011;6306;47.134;15.344;2022-12-18T09:29:20;14.10;;;8.93;;
12482;SDS011;6306;47.134;15.344;2022-12-18T09:31:46;8.33;;;6.73;;
12482;SDS011;6306;47.134;15.344;2022-12-18T09:34:12;10.53;;;6.93;;
12482;SDS011;6306;47.134;15.344;2022-12-18T09:36:38;11.27;;;8.30;;
12482;SDS011;6306;47.134;15.344;2022-12-18T09:39:04;13.80;;;8.47;;
12482;SDS011;6306;47.134;15.344;2022-12-18T09:41:46;10.37;;;7.80;;
12482;SDS011;6306;47.134;15.344;2022-12-18T09:46:45;15.67;;;8.13;;
12482;SDS011;6306;47.134;15.344;2022-12-18T09:49:14;10.57;;;7.17;;
12482;SDS011;6306;47.134;15.344;2022-12-18T09:52:01;13.00;;;6.63;;
12482;SDS011;6306;47.134;15.344;2022-12-18T09:54:33;12.37;;;8.50;;
12482;SDS011;6306;47.134;15.344;2022-12-18T09:57:01;13.87;;;8.57;;
12482;SDS011;6306;47.134;15.344;2022-12-18T09:59:37;13.57;;;7.90;;
12482;SDS011;6306;47.134;15.344;2022-12-18T10:02:24;9.53;;;7.13;;
12482;SDS011;6306;47.134;15.344;2022-12-18T10:07:35;13.33;;;8.63;;
12482;SDS011;6306;47.134;15.344;2022-12-18T10:10:06;14.47;;;8.87;;
12482;SDS011;6306;47.134;15.344;2022-12-18T10:15:07;8.80;;;5.80;;
12482;SDS011;6306;47.134;15.344;2022-12-18T10:17:45;10.90;;;7.90;;
12482;SDS011;6306;47.134;15.344;2022-12-18T10:20:15;19.77;;;9.77;;
12482;SDS011;6306;47.134;15.344;2022-12-18T10:22:53;11.00;;;8.77;;
12482;SDS011;6306;47.134;15.344;2022-12-18T10:25:25;13.60;;;7.87;;
12482;SDS011;6306;47.134;15.344;2022-12-18T10:27:54;13.47;;;8.37;;
12482;SDS011;6306;47.134;15.344;2022-12-18T10:30:21;15.27;;;8.50;;
12482;SDS011;6306;47.134;15.344;2022-12-18T10:32:48;14.70;;;7.73;;
12482;SDS011;6306;47.134;15.344;2022-12-18T10:35:25;22.50;;;10.13;;
12482;SDS011;6306;47.134;15.344;2022-12-18T10:40:27;13.37;;;9.13;;
12482;SDS011;6306;47.134;15.344;2022-12-18T10:43:03;14.00;;;9.30;;
12482;SDS011;6306;47.134;15.344;2022-12-18T10:45:29;14.40;;;9.70;;
12482;SDS011;6306;47.134;15.344;2022-12-18T10:47:55;13.33;;;9.50;;
12482;SDS011;6306;47.134;15.344;2022-12-18T10:50:25;24.87;;;10.17;;
12482;SDS011;6306;47.134;15.344;2022-12-18T10:52:57;21.30;;;10.40;;
12482;SDS011;6306;47.134;15.344;2022-12-18T10:55:30;24.47;;;10.90;;
12482;SDS011;6306;47.134;15.344;2022-12-18T10:58:02;16.40;;;10.70;;
12482;SDS011;6306;47.134;15.344;2022-12-18T11:00:38;14.67;;;10.07;;
12482;SDS011;6306;47.134;15.344;2022-12-18T11:03:07;19.63;;;12.33;;
12482;SDS011;6306;47.134;15.344;2022-12-18T11:05:50;17.87;;;11.47;;
12482;SDS011;6306;47.134;15.344;2022-12-18T11:08:26;21.60;;;11.73;;
12482;SDS011;6306;47.134;15.344;2022-12-18T11:10:52;22.30;;;12.27;;
12482;SDS011;6306;47.134;15.344;2022-12-18T11:13:19;23.30;;;13.53;;
12482;SDS011;6306;47.134;15.344;2022-12-18T11:15:46;22.80;;;13.97;;
12482;SDS011;6306;47.134;15.344;2022-12-18T11:18:20;17.60;;;12.27;;
12482;SDS011;6306;47.134;15.344;2022-12-18T11:20:51;19.63;;;11.90;;
12482;SDS011;6306;47.134;15.344;2022-12-18T11:23:18;18.10;;;11.73;;
12482;SDS011;6306;47.134;15.344;2022-12-18T11:25:51;20.73;;;13.07;;
12482;SDS011;6306;47.134;15.344;2022-12-18T11:30:51;20.23;;;12.03;;
12482;SDS011;6306;47.134;15.344;2022-12-18T11:33:35;17.47;;;11.70;;
12482;SDS011;6306;47.134;15.344;2022-12-18T11:36:02;20.40;;;14.10;;
12482;SDS011;6306;47.134;15.344;2022-12-18T11:38:30;26.20;;;13.17;;
12482;SDS011;6306;47.134;15.344;2022-12-18T11:40:58;22.30;;;13.77;;
12482;SDS011;6306;47.134;15.344;2022-12-18T11:43:27;20.07;;;13.10;;
12482;SDS011;6306;47.134;15.344;2022-12-18T11:46:07;17.07;;;13.40;;
12482;SDS011;6306;47.134;15.344;2022-12-18T11:48:38;24.67;;;14.73;;
12482;SDS011;6306;47.134;15.344;2022-12-18T11:51:10;24.10;;;12.17;;
12482;SDS011;6306;47.134;15.344;2022-12-18T11:53:37;20.70;;;12.60;;
12482;SDS011;6306;47.134;15.344;2022-12-18T12:06:19;19.80;;;13.47;;
12482;SDS011;6306;47.134;15.344;2022-12-18T12:08:52;17.23;;;11.43;;
12482;SDS011;6306;47.134;15.344;2022-12-18T12:17:34;22.70;;;13.00;;
12482;SDS011;6306;47.134;15.344;2022-12-18T12:19:34;23.10;;;13.40;;
12482;SDS011;6306;47.134;15.344;2022-12-18T12:35:54;18.10;;;13.37;;
12482;SDS011;6306;47.134;15.344;2022-12-18T12:38:24;20.13;;;13.80;;
12482;SDS011;6306;47.134;15.344;2022-12-18T12:40:54;31.33;;;14.87;;
12482;SDS011;6306;47.134;15.344;2022-12-18T12:43:27;22.93;;;13.17;;
12482;SDS011;6306;47.134;15.344;2022-12-18T12:46:05;26.50;;;15.67;;
12482;SDS011;6306;47.134;15.344;2022-12-18T12:48:35;24.70;;;15.07;;
12482;SDS011;6306;47.134;15.344;2022-12-18T12:51:06;22.00;;;13.70;;
12482;SDS011;6306;47.134;15.344;2022-12-18T12:53:34;21.17;;;15.07;;
12482;SDS011;6306;47.134;15.344;2022-12-18T12:56:01;25.87;;;15.47;;
12482;SDS011;6306;47.134;15.344;2022-12-18T12:58:49;24.93;;;14.47;;
12482;SDS011;6306;47.134;15.344;2022-12-18T13:04:12;27.20;;;14.87;;
12482;SDS011;6306;47.134;15.344;2022-12-18T13:09:10;29.13;;;15.30;;
12482;SDS011;6306;47.134;15.344;2022-12-18T13:14:26;22.93;;;14.63;;
12482;SDS011;6306;47.134;15.344;2022-12-18T13:17:09;22.80;;;14.83;;
12482;SDS011;6306;47.134;15.344;2022-12-18T13:19:38;25.97;;;15.83;;
12482;SDS011;6306;47.134;15.344;2022-12-18T13:22:04;27.83;;;13.97;;
12482;SDS011;6306;47.134;15.344;2022-12-18T13:24:30;24.30;;;14.93;;
12482;SDS011;6306;47.134;15.344;2022-12-18T13:26:57;26.90;;;15.90;;
12482;SDS011;6306;47.134;15.344;2022-12-18T13:29:42;22.53;;;15.80;;
12482;SDS011;6306;47.134;15.344;2022-12-18T13:32:19;27.43;;;13.70;;
12482;SDS011;6306;47.134;15.344;2022-12-18T13:34:45;29.03;;;16.23;;
12482;SDS011;6306;47.134;15.344;2022-12-18T13:39:56;26.93;;;15.20;;
12482;SDS011;6306;47.134;15.344;2022-12-18T13:45:58;32.53;;;16.27;;
12482;SDS011;6306;47.134;15.344;2022-12-18T13:47:53;28.73;;;17.40;;
12482;SDS011;6306;47.134;15.344;2022-12-18T13:50:23;31.07;;;17.90;;
12482;SDS011;6306;47.134;15.344;2022-12-18T13:52:50;28.33;;;17.97;;
12482;SDS011;6306;47.134;15.344;2022-12-18T13:55:18;30.13;;;15.87;;
12482;SDS011;6306;47.134;15.344;2022-12-18T13:57:44;23.87;;;15.57;;
12482;SDS011;6306;47.134;15.344;2022-12-18T14:00:23;30.40;;;19.60;;
12482;SDS011;6306;47.134;15.344;2022-12-18T14:02:50;25.13;;;16.10;;
12482;SDS011;6306;47.134;15.344;2022-12-18T14:05:49;25.40;;;14.63;;
12482;SDS011;6306;47.134;15.344;2022-12-18T14:08:10;30.70;;;17.10;;
12482;SDS011;6306;47.134;15.344;2022-12-18T14:10:39;27.60;;;16.50;;
12482;SDS011;6306;47.134;15.344;2022-12-18T14:13:07;21.23;;;13.33;;
12482;SDS011;6306;47.134;15.344;2022-12-18T14:15:40;26.97;;;16.30;;
12482;SDS011;6306;47.134;15.344;2022-12-18T14:18:23;31.07;;;15.47;;
12482;SDS011;6306;47.134;15.344;2022-12-18T14:20:50;28.00;;;17.20;;
12482;SDS011;6306;47.134;15.344;2022-12-18T14:26:22;29.87;;;16.53;;
12482;SDS011;6306;47.134;15.344;2022-12-18T14:28:47;33.63;;;17.60;;
12482;SDS011;6306;47.134;15.344;2022-12-18T14:31:17;31.27;;;17.37;;
12482;SDS011;6306;47.134;15.344;2022-12-18T14:33:44;27.37;;;16.93;;
12482;SDS011;6306;47.134;15.344;2022-12-18T14:36:20;31.77;;;19.27;;
12482;SDS011;6306;47.134;15.344;2022-12-18T14:38:48;27.77;;;18.23;;
12482;SDS011;6306;47.134;15.344;2022-12-18T14:41:15;35.63;;;18.87;;
12482;SDS011;6306;47.134;15.344;2022-12-18T14:43:43;32.80;;;18.13;;
12482;SDS011;6306;47.134;15.344;2022-12-18T14:48:55;32.90;;;18.97;;
12482;SDS011;6306;47.134;15.344;2022-12-18T14:51:22;31.40;;;17.27;;
12482;SDS011;6306;47.134;15.344;2022-12-18T14:53:52;24.70;;;16.40;;
12482;SDS011;6306;47.134;15.344;2022-12-18T14:56:35;30.87;;;18.43;;
12482;SDS011;6306;47.134;15.344;2022-12-18T14:59:19;34.23;;;19.87;;
12482;SDS011;6306;47.134;15.344;2022-12-18T15:01:49;30.37;;;16.20;;
12482;SDS011;6306;47.134;15.344;2022-12-18T15:04:33;25.53;;;17.07;;
12482;SDS011;6306;47.134;15.344;2022-12-18T15:07:11;32.77;;;19.37;;
12482;SDS011;6306;47.134;15.344;2022-12-18T15:09:39;42.53;;;21.13;;
12482;SDS011;6306;47.134;15.344;2022-12-18T15:12:17;29.70;;;17.47;;
12482;SDS011;6306;47.134;15.344;2022-12-18T15:14:46;31.17;;;17.50;;
12482;SDS011;6306;47.134;15.344;2022-12-18T15:17:19;35.53;;;17.70;;
12482;SDS011;6306;47.134;15.344;2022-12-18T15:19:46;29.13;;;18.40;;
12482;SDS011;6306;47.134;15.344;2022-12-18T15:22:28;31.43;;;17.83;;
12482;SDS011;6306;47.134;15.344;2022-12-18T15:24:55;33.30;;;17.70;;
12482;SDS011;6306;47.134;15.344;2022-12-18T15:27:31;25.53;;;15.80;;
12482;SDS011;6306;47.134;15.344;2022-12-18T15:30:02;32.27;;;18.63;;
12482;SDS011;6306;47.134;15.344;2022-12-18T15:32:28;34.60;;;20.00;;
12482;SDS011;6306;47.134;15.344;2022-12-18T15:37:39;33.90;;;19.50;;
12482;SDS011;6306;47.134;15.344;2022-12-18T15:40:05;29.27;;;17.67;;
12482;SDS011;6306;47.134;15.344;2022-12-18T15:42:32;30.17;;;16.13;;
12482;SDS011;6306;47.134;15.344;2022-12-18T15:45:17;26.07;;;16.90;;
12482;SDS011;6306;47.134;15.344;2022-12-18T15:47:43;32.10;;;19.17;;
12482;SDS011;6306;47.134;15.344;2022-12-18T15:50:10;30.47;;;18.70;;
12482;SDS011;6306;47.134;15.344;2022-12-18T15:52:39;35.03;;;18.43;;
12482;SDS011;6306;47.134;15.344;2022-12-18T15:55:16;29.30;;;17.07;;
12482;SDS011;6306;47.134;15.344;2022-12-18T15:58:03;27.10;;;16.00;;
12482;SDS011;6306;47.134;15.344;2022-12-18T16:00:31;31.70;;;17.10;;
12482;SDS011;6306;47.134;15.344;2022-12-18T16:02:57;29.70;;;18.67;;
12482;SDS011;6306;47.134;15.344;2022-12-18T16:05:24;31.93;;;16.87;;
12482;SDS011;6306;47.134;15.344;2022-12-18T16:07:50;33.97;;;19.00;;
12482;SDS011;6306;47.134;15.344;2022-12-18T16:10:18;29.73;;;17.67;;
12482;SDS011;6306;47.134;15.344;2022-12-18T16:12:46;36.03;;;17.90;;